Time;durP1;ratioP1;P1;durP2;ratioP2;P2;SDS_P1;SDS_P2;PMS_P1;PMS_P2;Temp;Humidity;BMP_temperature;BMP_pressure;BME280_temperature;BME280_humidity;BME280_pressure;Samples;Min_cycle;Max_cycle;Signal;HPM_P1;HPM_P2
2022/07/16 00:03:19;;;;;;;;;;;25.70;38.30;;;;;;5003033;28;19989;-82
2022/07/16 00:05:46;;;;;;;;;;;25.70;37.80;;;;;;5002779;28;19997;-82
2022/07/16 00:08:13;;;;;;;;;;;25.80;38.00;;;;;;5001836;28;19964;-82
2022/07/16 00:10:39;;;;;;;;;;;25.80;38.00;;;;;;4999848;28;19933;-81
2022/07/16 00:13:06;;;;;;;;;;;25.80;38.20;;;;;;5000057;28;19965;-81
2022/07/16 00:15:33;;;;;;;;;;;25.80;38.20;;;;;;5000273;28;20024;-82
2022/07/16 00:20:41;;;;;;;;;;;25.80;38.30;;;;;;5003764;28;19929;-82
2022/07/16 00:23:08;;;;;;;;;;;25.80;38.40;;;;;;5002498;28;20021;-82
2022/07/16 00:25:35;;;;;;;;;;;25.70;38.40;;;;;;5003209;28;19932;-82
2022/07/16 00:28:02;;;;;;;;;;;25.80;38.60;;;;;;5003425;28;19949;-82
2022/07/16 00:30:28;;;;;;;;;;;25.70;38.60;;;;;;5003873;28;19996;-82
2022/07/16 00:32:58;;;;;;;;;;;25.70;38.70;;;;;;5001727;28;19932;-82
2022/07/16 00:35:24;;;;;;;;;;;25.70;38.70;;;;;;5001559;28;19957;-82
2022/07/16 00:37:52;;;;;;;;;;;25.80;38.90;;;;;;5001629;28;19926;-82
2022/07/16 00:40:19;;;;;;;;;;;25.70;38.90;;;;;;5003211;28;20017;-82
2022/07/16 00:42:46;;;;;;;;;;;25.70;38.90;;;;;;4998517;28;19933;-82
2022/07/16 00:45:13;;;;;;;;;;;25.70;39.00;;;;;;4998939;28;19930;-82
2022/07/16 00:47:39;;;;;;;;;;;25.70;39.10;;;;;;4998677;28;19995;-82
2022/07/16 00:50:06;;;;;;;;;;;25.70;39.20;;;;;;4998960;28;19986;-82
2022/07/16 00:52:35;;;;;;;;;;;25.70;39.30;;;;;;4997372;28;19965;-82
2022/07/16 00:55:03;;;;;;;;;;;25.70;39.30;;;;;;4996882;28;19926;-82
2022/07/16 00:57:29;;;;;;;;;;;25.70;39.40;;;;;;4995989;28;20013;-81
2022/07/16 00:59:56;;;;;;;;;;;25.70;39.50;;;;;;4997636;28;19948;-81
2022/07/16 01:02:23;;;;;;;;;;;25.70;39.60;;;;;;4997923;28;19936;-81
2022/07/16 01:04:50;;;;;;;;;;;25.70;39.60;;;;;;4997172;28;20013;-81
2022/07/16 01:07:17;;;;;;;;;;;25.70;40.30;;;;;;4997002;28;20039;-81
2022/07/16 01:09:44;;;;;;;;;;;25.70;39.80;;;;;;4996949;28;19929;-81
2022/07/16 01:12:12;;;;;;;;;;;25.70;39.80;;;;;;4996785;28;19926;-81
2022/07/16 01:14:38;;;;;;;;;;;25.70;39.90;;;;;;4997089;28;19932;-82
2022/07/16 01:17:06;;;;;;;;;;;25.70;40.00;;;;;;4998269;28;20008;-82
2022/07/16 01:19:32;;;;;;;;;;;25.70;40.00;;;;;;4998225;28;19926;-81
2022/07/16 01:21:59;;;;;;;;;;;25.70;40.10;;;;;;4998205;28;19926;-82
2022/07/16 01:24:27;;;;;;;;;;;25.70;40.10;;;;;;5003193;28;20286;-82
2022/07/16 01:26:54;;;;;;;;;;;25.70;40.20;;;;;;5005862;28;19993;-83
2022/07/16 01:29:20;;;;;;;;;;;25.70;40.20;;;;;;5006112;28;19926;-83
2022/07/16 01:31:47;;;;;;;;;;;25.70;40.30;;;;;;5004821;28;19965;-83
2022/07/16 01:34:26;;;;;;;;;;;25.60;40.20;;;;;;5003540;28;19930;-82
2022/07/16 01:36:54;;;;;;;;;;;25.70;40.40;;;;;;5001574;28;19925;-82
2022/07/16 01:39:20;;;;;;;;;;;25.70;40.40;;;;;;5003061;28;19930;-82
2022/07/16 01:41:51;;;;;;;;;;;25.70;40.50;;;;;;5004317;28;19932;-82
2022/07/16 01:44:17;;;;;;;;;;;25.70;40.60;;;;;;5003890;28;19981;-82
2022/07/16 01:46:44;;;;;;;;;;;25.70;40.60;;;;;;5004108;28;19936;-82
2022/07/16 01:49:11;;;;;;;;;;;25.70;40.60;;;;;;5003884;28;19932;-82
2022/07/16 01:51:37;;;;;;;;;;;25.60;40.60;;;;;;5005241;28;19926;-83
2022/07/16 01:54:04;;;;;;;;;;;25.70;40.80;;;;;;5004255;28;20017;-83
2022/07/16 01:56:31;;;;;;;;;;;25.70;40.90;;;;;;5005531;28;19932;-82
2022/07/16 01:58:59;;;;;;;;;;;25.70;41.00;;;;;;5004838;28;19984;-82
2022/07/16 02:01:25;;;;;;;;;;;25.70;41.10;;;;;;5002706;28;19936;-82
2022/07/16 02:03:52;;;;;;;;;;;25.70;41.20;;;;;;5000160;28;19926;-81
2022/07/16 02:06:19;;;;;;;;;;;25.70;41.30;;;;;;5000332;28;19925;-81
2022/07/16 02:08:46;;;;;;;;;;;25.70;41.40;;;;;;5000060;28;19925;-82
2022/07/16 02:11:12;;;;;;;;;;;25.70;41.50;;;;;;4999647;28;20385;-81
2022/07/16 05:14:55;;;;;;;;;;;25.50;44.00;;;;;;5554500;23;19925;-79
2022/07/16 05:17:22;;;;;;;;;;;25.50;44.00;;;;;;4994400;28;20435;-78
2022/07/16 05:19:49;;;;;;;;;;;25.50;44.00;;;;;;4994510;28;20411;-78
2022/07/16 05:22:15;;;;;;;;;;;25.50;44.10;;;;;;4995577;28;20456;-78
2022/07/16 05:24:42;;;;;;;;;;;25.50;44.10;;;;;;4994360;28;20444;-77
2022/07/16 05:27:09;;;;;;;;;;;25.50;44.20;;;;;;4996841;28;19976;-80
2022/07/16 05:29:35;;;;;;;;;;;25.50;44.20;;;;;;4996221;28;19926;-80
2022/07/16 05:32:04;;;;;;;;;;;25.50;44.20;;;;;;4996722;28;19926;-80
2022/07/16 05:34:30;;;;;;;;;;;25.50;44.20;;;;;;4996421;28;19929;-80
2022/07/16 05:36:57;;;;;;;;;;;25.50;44.30;;;;;;4996086;28;20381;-79
2022/07/16 05:39:24;;;;;;;;;;;25.50;44.30;;;;;;4999126;28;19925;-80
2022/07/16 05:41:50;;;;;;;;;;;25.50;44.30;;;;;;4998163;28;20358;-81
2022/07/16 05:44:17;;;;;;;;;;;25.50;44.30;;;;;;4996638;28;20017;-82
2022/07/16 05:46:44;;;;;;;;;;;25.50;44.40;;;;;;4996761;28;20440;-82
2022/07/16 05:49:12;;;;;;;;;;;25.50;44.40;;;;;;4995315;28;19977;-82
2022/07/16 05:51:38;;;;;;;;;;;25.50;44.50;;;;;;4995033;28;20394;-82
2022/07/16 05:54:05;;;;;;;;;;;25.50;44.50;;;;;;4997117;28;20363;-81
2022/07/16 05:56:32;;;;;;;;;;;25.50;44.50;;;;;;4999027;28;19997;-83
2022/07/16 05:59:02;;;;;;;;;;;25.50;44.50;;;;;;4998308;28;19993;-81
2022/07/16 06:01:29;;;;;;;;;;;25.50;44.60;;;;;;4997866;28;20400;-83
2022/07/16 06:03:55;;;;;;;;;;;25.50;44.60;;;;;;4995483;28;20356;-85
2022/07/16 06:06:24;;;;;;;;;;;25.50;44.60;;;;;;4997122;28;20021;-80
2022/07/16 06:08:50;;;;;;;;;;;25.50;44.70;;;;;;5000799;28;19976;-81
2022/07/16 06:11:17;;;;;;;;;;;25.50;44.70;;;;;;5004416;28;19926;-81
2022/07/16 06:13:43;;;;;;;;;;;25.50;44.70;;;;;;5003564;28;20382;-82
2022/07/16 06:16:10;;;;;;;;;;;25.50;44.80;;;;;;5003599;28;20341;-82
2022/07/16 06:18:37;;;;;;;;;;;25.50;44.80;;;;;;5004011;28;20452;-81
2022/07/16 06:21:04;;;;;;;;;;;25.50;44.80;;;;;;5003645;28;19933;-82
2022/07/16 06:23:32;;;;;;;;;;;25.50;44.90;;;;;;5003774;28;20418;-81
2022/07/16 06:25:59;;;;;;;;;;;25.50;44.90;;;;;;5002816;28;20032;-81
2022/07/16 06:28:25;;;;;;;;;;;25.50;45.00;;;;;;5004608;28;20017;-81
2022/07/16 06:30:52;;;;;;;;;;;25.50;45.00;;;;;;5003702;28;19932;-82
2022/07/16 06:33:19;;;;;;;;;;;25.50;45.10;;;;;;5005913;28;19933;-81
2022/07/16 06:35:45;;;;;;;;;;;25.50;45.10;;;;;;5007139;28;20326;-81
2022/07/16 06:38:12;;;;;;;;;;;25.50;45.20;;;;;;5007542;28;19933;-81
2022/07/16 06:40:43;;;;;;;;;;;25.50;45.20;;;;;;5007105;28;19974;-82
2022/07/16 06:43:09;;;;;;;;;;;25.60;45.30;;;;;;5006798;28;19926;-81
2022/07/16 06:45:37;;;;;;;;;;;25.60;45.40;;;;;;5005475;28;20356;-81
2022/07/16 06:48:03;;;;;;;;;;;25.50;45.40;;;;;;5005888;28;19993;-81
2022/07/16 06:50:30;;;;;;;;;;;25.50;45.50;;;;;;5007686;28;19973;-81
2022/07/16 06:52:57;;;;;;;;;;;25.50;45.50;;;;;;5006675;28;19989;-81
2022/07/16 06:55:23;;;;;;;;;;;25.60;45.60;;;;;;5005823;28;19986;-82
2022/07/16 06:57:51;;;;;;;;;;;25.50;45.60;;;;;;5005743;28;19969;-82
2022/07/16 07:00:18;;;;;;;;;;;25.60;45.70;;;;;;5005422;28;19972;-82
2022/07/16 07:02:45;;;;;;;;;;;25.60;45.80;;;;;;5005618;28;19972;-82
2022/07/16 07:05:11;;;;;;;;;;;25.60;45.90;;;;;;5006147;28;19969;-82
2022/07/16 07:07:38;;;;;;;;;;;25.60;45.90;;;;;;5005753;28;19965;-82
2022/07/16 07:10:05;;;;;;;;;;;25.60;46.00;;;;;;5005713;28;19998;-81
2022/07/16 07:12:33;;;;;;;;;;;25.60;46.10;;;;;;5006411;28;19965;-81
2022/07/16 07:15:01;;;;;;;;;;;25.50;46.00;;;;;;5005390;28;20297;-82
2022/07/16 07:17:28;;;;;;;;;;;25.60;46.20;;;;;;5005100;28;19990;-82
2022/07/16 07:19:55;;;;;;;;;;;25.60;46.20;;;;;;5003963;28;20019;-82
2022/07/16 07:22:22;;;;;;;;;;;25.60;46.30;;;;;;5003800;28;19929;-82
2022/07/16 07:24:50;;;;;;;;;;;25.60;46.40;;;;;;5003798;28;19953;-82
2022/07/16 07:27:18;;;;;;;;;;;25.60;46.50;;;;;;5002768;28;19948;-82
2022/07/16 07:29:45;;;;;;;;;;;25.60;46.60;;;;;;4997968;28;19926;-83
2022/07/16 07:32:14;;;;;;;;;;;25.50;46.60;;;;;;4997279;28;19930;-83
2022/07/16 07:34:40;;;;;;;;;;;25.50;46.60;;;;;;4996720;28;19925;-84
2022/07/16 07:37:07;;;;;;;;;;;25.60;46.60;;;;;;4995883;28;20017;-84
2022/07/16 07:39:34;;;;;;;;;;;25.50;46.60;;;;;;4996548;28;20032;-83
2022/07/16 07:42:00;;;;;;;;;;;25.60;46.60;;;;;;4997429;28;19969;-83
2022/07/16 07:44:27;;;;;;;;;;;25.50;46.60;;;;;;4996845;28;19926;-84
2022/07/16 07:46:54;;;;;;;;;;;25.60;46.60;;;;;;4996846;28;20029;-83
2022/07/16 07:49:22;;;;;;;;;;;25.60;47.20;;;;;;5000327;28;20012;-83
2022/07/16 07:51:49;;;;;;;;;;;25.60;46.60;;;;;;4996367;28;20013;-82
2022/07/16 07:54:16;;;;;;;;;;;25.50;46.60;;;;;;4998474;28;19969;-84
2022/07/16 07:56:43;;;;;;;;;;;25.60;46.60;;;;;;4997857;28;19929;-81
2022/07/16 07:59:09;;;;;;;;;;;25.50;46.60;;;;;;4997319;28;19964;-81
2022/07/16 08:01:36;;;;;;;;;;;25.50;46.60;;;;;;4998100;28;19962;-81
2022/07/16 08:04:03;;;;;;;;;;;25.60;46.60;;;;;;4998862;28;19933;-81
2022/07/16 08:06:31;;;;;;;;;;;25.60;46.70;;;;;;4999101;28;19972;-81
2022/07/16 08:08:57;;;;;;;;;;;25.60;46.90;;;;;;5000148;28;19933;-81
2022/07/16 08:11:24;;;;;;;;;;;25.60;46.90;;;;;;4998247;28;20018;-82
2022/07/16 08:13:51;;;;;;;;;;;25.50;47.00;;;;;;5000780;28;19945;-82
2022/07/16 08:16:18;;;;;;;;;;;25.50;47.10;;;;;;4998269;28;19985;-84
2022/07/16 08:18:44;;;;;;;;;;;25.60;47.20;;;;;;4996516;28;20013;-83
2022/07/16 08:21:11;;;;;;;;;;;25.60;47.30;;;;;;4997370;28;19989;-84
2022/07/16 08:26:24;;;;;;;;;;;25.60;47.50;;;;;;4996596;28;19932;-83
2022/07/16 08:28:51;;;;;;;;;;;25.60;47.60;;;;;;4996554;28;19933;-84
2022/07/16 08:31:18;;;;;;;;;;;25.60;47.70;;;;;;4996455;28;19926;-84
2022/07/16 08:33:45;;;;;;;;;;;25.60;47.70;;;;;;4995586;28;19925;-83
2022/07/16 08:36:11;;;;;;;;;;;25.60;47.80;;;;;;4996844;28;19973;-84
2022/07/16 08:38:39;;;;;;;;;;;25.60;47.80;;;;;;4996663;28;19925;-82
2022/07/16 08:41:06;;;;;;;;;;;25.60;47.90;;;;;;4996078;28;19925;-85
2022/07/16 08:43:33;;;;;;;;;;;25.60;48.00;;;;;;4994548;28;19930;-83
2022/07/16 08:46:00;;;;;;;;;;;25.60;47.90;;;;;;4995051;28;19926;-83
2022/07/16 08:48:27;;;;;;;;;;;25.60;47.80;;;;;;4994624;28;19984;-83
2022/07/16 08:50:54;;;;;;;;;;;25.50;47.60;;;;;;4996283;28;20345;-83
2022/07/16 08:53:23;;;;;;;;;;;25.50;47.60;;;;;;4995024;28;20020;-83
2022/07/16 08:55:52;;;;;;;;;;;25.50;47.40;;;;;;4996867;28;20005;-81
2022/07/16 08:58:19;;;;;;;;;;;25.40;47.20;;;;;;5002166;28;19926;-82
2022/07/16 09:00:46;;;;;;;;;;;25.40;47.10;;;;;;4998995;28;20016;-82
2022/07/16 09:03:13;;;;;;;;;;;25.40;46.90;;;;;;4998589;28;19932;-82
2022/07/16 09:05:39;;;;;;;;;;;25.40;46.50;;;;;;4999704;28;20351;-81
2022/07/16 09:08:06;;;;;;;;;;;25.30;46.40;;;;;;4999044;28;20461;-81
2022/07/16 09:10:36;;;;;;;;;;;25.30;46.40;;;;;;4999910;28;19946;-82
2022/07/16 09:13:05;;;;;;;;;;;25.30;46.10;;;;;;5000315;28;20032;-82
2022/07/16 09:15:33;;;;;;;;;;;25.20;45.70;;;;;;4998759;28;19965;-83
2022/07/16 09:18:10;;;;;;;;;;;25.20;45.40;;;;;;4998776;28;20009;-81
2022/07/16 09:20:37;;;;;;;;;;;25.20;45.20;;;;;;4998758;28;20008;-82
2022/07/16 09:23:04;;;;;;;;;;;25.10;44.90;;;;;;4998723;28;19981;-82
2022/07/16 09:25:31;;;;;;;;;;;25.20;44.70;;;;;;4997591;28;19925;-81
2022/07/16 09:27:58;;;;;;;;;;;25.20;44.50;;;;;;4997839;28;20017;-80
2022/07/16 09:30:27;;;;;;;;;;;25.20;44.30;;;;;;4998264;28;19930;-80
2022/07/16 09:32:54;;;;;;;;;;;25.20;44.10;;;;;;4997898;28;20354;-80
2022/07/16 09:35:21;;;;;;;;;;;25.20;43.90;;;;;;4998207;28;20029;-80
2022/07/16 09:37:49;;;;;;;;;;;25.20;43.70;;;;;;4997968;28;20349;-80
2022/07/16 09:40:28;;;;;;;;;;;25.30;43.50;;;;;;4999356;28;19926;-81
2022/07/16 09:42:55;;;;;;;;;;;25.30;43.20;;;;;;5002398;28;20473;-81
2022/07/16 09:45:22;;;;;;;;;;;25.30;42.90;;;;;;5004330;28;19933;-80
2022/07/16 09:47:50;;;;;;;;;;;25.20;42.60;;;;;;5003732;28;20012;-80
2022/07/16 09:50:17;;;;;;;;;;;25.20;42.30;;;;;;5001058;28;19926;-80
2022/07/16 09:52:45;;;;;;;;;;;25.20;42.00;;;;;;5001852;28;19937;-80
2022/07/16 09:55:12;;;;;;;;;;;25.20;41.70;;;;;;5001754;28;19933;-80
2022/07/16 09:57:41;;;;;;;;;;;25.10;41.40;;;;;;5000934;28;20018;-80
2022/07/16 10:00:08;;;;;;;;;;;25.20;41.40;;;;;;5001332;28;19926;-80
2022/07/16 10:02:35;;;;;;;;;;;25.10;41.20;;;;;;5000699;28;19969;-80
2022/07/16 10:05:03;;;;;;;;;;;25.10;40.90;;;;;;5001791;28;19973;-80
2022/07/16 10:07:30;;;;;;;;;;;25.10;40.60;;;;;;5001497;28;20017;-80
2022/07/16 10:09:57;;;;;;;;;;;25.10;40.40;;;;;;5001187;28;20349;-81
2022/07/16 10:12:24;;;;;;;;;;;25.10;40.10;;;;;;5001905;28;20021;-80
2022/07/16 10:14:52;;;;;;;;;;;25.10;39.90;;;;;;5001913;28;20008;-80
2022/07/16 10:17:20;;;;;;;;;;;25.10;39.60;;;;;;5001336;28;20008;-80
2022/07/16 10:19:56;;;;;;;;;;;25.10;39.50;;;;;;5000488;28;19933;-78
2022/07/16 10:22:29;;;;;;;;;;;25.10;39.20;;;;;;4997783;28;19932;-78
2022/07/16 10:24:56;;;;;;;;;;;25.10;39.00;;;;;;4997398;28;19925;-78
2022/07/16 10:27:25;;;;;;;;;;;25.10;38.80;;;;;;4997570;28;19926;-79
2022/07/16 10:30:04;;;;;;;;;;;25.20;38.70;;;;;;4998161;28;20024;-79
2022/07/16 10:32:51;;;;;;;;;;;25.20;38.50;;;;;;4997813;28;19948;-79
2022/07/16 10:35:27;;;;;;;;;;;25.20;38.40;;;;;;4998188;28;20345;-79
2022/07/16 10:38:04;;;;;;;;;;;25.20;38.20;;;;;;4998292;28;20036;-79
2022/07/16 10:40:31;;;;;;;;;;;25.20;38.00;;;;;;4998469;28;19972;-79
2022/07/16 12:42:12;;;;;;;;;;;25.60;36.20;;;;;;5179278;23;19992;-80
2022/07/16 12:44:39;;;;;;;;;;;25.60;36.30;;;;;;5003066;28;19968;-80
2022/07/16 12:47:06;;;;;;;;;;;25.70;36.30;;;;;;5003172;28;19926;-79
2022/07/16 12:49:33;;;;;;;;;;;25.60;36.30;;;;;;5001380;28;19926;-79
2022/07/16 12:52:00;;;;;;;;;;;25.70;36.50;;;;;;4997071;28;19931;-79
2022/07/16 12:58:47;;;;;;;;;;;25.60;36.50;;;;;;4999486;28;19937;-82
2022/07/16 13:00:03;;;;;;;;;;;25.70;36.60;;;;;;4994838;28;20408;-78
2022/07/16 13:02:30;;;;;;;;;;;25.70;36.60;;;;;;4995095;28;20024;-78
2022/07/16 13:04:56;;;;;;;;;;;25.70;36.60;;;;;;4994606;28;19926;-78
2022/07/16 13:07:23;;;;;;;;;;;25.70;36.60;;;;;;4994710;28;19976;-78
2022/07/16 13:09:53;;;;;;;;;;;25.70;36.60;;;;;;4994652;28;19973;-79
2022/07/16 13:12:21;;;;;;;;;;;25.70;36.60;;;;;;4994541;28;19930;-78
2022/07/16 13:14:48;;;;;;;;;;;25.70;36.60;;;;;;4994831;28;19988;-78
2022/07/16 13:17:15;;;;;;;;;;;25.70;36.60;;;;;;4995775;28;19969;-78
2022/07/16 13:19:41;;;;;;;;;;;25.70;36.60;;;;;;4997576;28;19973;-78
2022/07/16 13:22:09;;;;;;;;;;;25.70;36.60;;;;;;4999089;28;20386;-78
2022/07/16 13:24:35;;;;;;;;;;;25.70;36.60;;;;;;4998638;28;20309;-78
2022/07/16 13:27:02;;;;;;;;;;;25.70;36.60;;;;;;4998826;28;20365;-77
2022/07/16 13:29:30;;;;;;;;;;;25.70;36.60;;;;;;4999243;28;19973;-77
2022/07/16 13:31:59;;;;;;;;;;;25.70;36.60;;;;;;4999014;28;19925;-77
2022/07/16 13:34:26;;;;;;;;;;;25.70;36.60;;;;;;4998294;28;20392;-77
2022/07/16 13:36:52;;;;;;;;;;;25.70;36.60;;;;;;4998354;28;20012;-77
2022/07/16 13:39:19;;;;;;;;;;;25.70;36.60;;;;;;4998078;28;20412;-77
2022/07/16 13:41:46;;;;;;;;;;;25.70;36.60;;;;;;4998028;28;19926;-77
2022/07/16 13:44:13;;;;;;;;;;;25.60;36.50;;;;;;4998556;28;20012;-78
2022/07/16 13:46:41;;;;;;;;;;;25.70;36.60;;;;;;4997820;28;19926;-78
2022/07/16 13:49:08;;;;;;;;;;;25.70;36.60;;;;;;4998064;28;20297;-78
2022/07/16 13:51:34;;;;;;;;;;;25.60;36.50;;;;;;4999692;28;19932;-78
2022/07/16 13:54:01;;;;;;;;;;;25.60;36.50;;;;;;4999275;28;19949;-78
2022/07/16 13:56:28;;;;;;;;;;;25.70;36.60;;;;;;4998171;28;20016;-78
2022/07/16 13:58:54;;;;;;;;;;;25.70;36.60;;;;;;4997762;28;19989;-79
2022/07/16 14:01:21;;;;;;;;;;;25.60;36.60;;;;;;4997595;28;19925;-78
2022/07/16 14:03:49;;;;;;;;;;;25.70;36.60;;;;;;4997785;28;20013;-78
2022/07/16 14:06:16;;;;;;;;;;;25.70;36.60;;;;;;4997956;28;19932;-78
2022/07/16 14:08:42;;;;;;;;;;;25.70;36.60;;;;;;4998922;28;19976;-78
2022/07/16 14:11:09;;;;;;;;;;;25.70;36.60;;;;;;4999268;28;20021;-79
2022/07/16 14:13:36;;;;;;;;;;;25.70;36.60;;;;;;5001931;28;19989;-80
2022/07/16 14:16:02;;;;;;;;;;;25.70;36.60;;;;;;5000112;28;20016;-79
2022/07/16 14:18:30;;;;;;;;;;;25.70;36.60;;;;;;5002200;28;19980;-79
2022/07/16 14:20:58;;;;;;;;;;;25.70;36.60;;;;;;4999115;28;19972;-79
2022/07/16 14:23:29;;;;;;;;;;;25.70;36.60;;;;;;4998191;28;20399;-79
2022/07/16 14:25:55;;;;;;;;;;;25.70;36.60;;;;;;4998773;28;20270;-79
2022/07/16 14:28:22;;;;;;;;;;;25.70;36.60;;;;;;4998247;28;19926;-79
2022/07/16 14:30:49;;;;;;;;;;;25.70;36.60;;;;;;4997163;28;19976;-79
2022/07/16 14:33:15;;;;;;;;;;;25.70;36.60;;;;;;4999192;28;19926;-79
2022/07/16 14:35:42;;;;;;;;;;;25.70;36.60;;;;;;4998881;28;20005;-80
2022/07/16 14:38:10;;;;;;;;;;;25.70;36.60;;;;;;4998198;28;20021;-80
2022/07/16 14:40:37;;;;;;;;;;;25.70;36.60;;;;;;4998047;28;20258;-80
2022/07/16 14:43:03;;;;;;;;;;;25.70;36.60;;;;;;4997355;28;20380;-79
2022/07/16 14:45:33;;;;;;;;;;;25.70;36.60;;;;;;4998229;28;19952;-80
2022/07/16 14:48:00;;;;;;;;;;;25.70;36.60;;;;;;4998703;28;19925;-80
2022/07/16 14:50:27;;;;;;;;;;;25.70;36.60;;;;;;4998371;28;20029;-79
2022/07/16 14:52:53;;;;;;;;;;;25.70;36.60;;;;;;4997694;28;19932;-78
2022/07/16 14:55:22;;;;;;;;;;;25.70;36.60;;;;;;4997926;28;19983;-78
2022/07/16 14:57:48;;;;;;;;;;;25.70;36.60;;;;;;4998363;28;20020;-81
2022/07/16 15:00:18;;;;;;;;;;;25.70;36.60;;;;;;4999139;28;19947;-79
2022/07/16 15:03:08;;;;;;;;;;;25.70;36.60;;;;;;4998448;28;19993;-79
2022/07/16 15:05:34;;;;;;;;;;;25.70;36.60;;;;;;4998118;28;20016;-80
2022/07/16 15:08:01;;;;;;;;;;;25.70;36.60;;;;;;4998548;28;19929;-79
2022/07/16 15:10:30;;;;;;;;;;;25.70;36.60;;;;;;4998048;28;20296;-79
2022/07/16 15:13:02;;;;;;;;;;;25.70;36.60;;;;;;4997862;28;19926;-79
2022/07/16 15:15:29;;;;;;;;;;;25.70;36.50;;;;;;4998104;28;20013;-79
2022/07/16 15:17:56;;;;;;;;;;;25.70;36.60;;;;;;4997939;28;19963;-79
2022/07/16 15:20:25;;;;;;;;;;;25.70;36.60;;;;;;4999641;28;20453;-79
2022/07/16 15:22:51;;;;;;;;;;;25.70;36.60;;;;;;4998078;28;20012;-79
2022/07/16 15:25:19;;;;;;;;;;;25.70;36.60;;;;;;4997120;28;20441;-79
2022/07/16 15:27:54;;;;;;;;;;;25.70;36.60;;;;;;4999491;28;20032;-79
2022/07/16 15:30:22;;;;;;;;;;;25.70;36.60;;;;;;5003256;28;19995;-79
2022/07/16 15:32:49;;;;;;;;;;;25.70;36.60;;;;;;5000177;28;19929;-79
2022/07/16 15:35:16;;;;;;;;;;;25.70;36.60;;;;;;4997799;28;19984;-79
2022/07/16 15:37:42;;;;;;;;;;;25.70;36.60;;;;;;4998274;28;19976;-79
2022/07/16 15:40:09;;;;;;;;;;;25.70;36.60;;;;;;4998256;28;19925;-79
2022/07/16 15:42:36;;;;;;;;;;;25.70;36.60;;;;;;4997107;28;20309;-79
2022/07/16 15:45:05;;;;;;;;;;;25.70;36.60;;;;;;4997697;28;19988;-79
2022/07/16 15:47:32;;;;;;;;;;;25.70;36.60;;;;;;4996978;28;19926;-79
2022/07/16 15:49:58;;;;;;;;;;;25.70;36.60;;;;;;4996832;28;20445;-79
2022/07/16 15:52:25;;;;;;;;;;;25.70;36.60;;;;;;4997256;28;19932;-79
2022/07/16 15:54:52;;;;;;;;;;;25.70;36.60;;;;;;4996860;28;19936;-79
2022/07/16 15:57:18;;;;;;;;;;;25.70;36.60;;;;;;4997006;28;19980;-79
2022/07/16 15:59:45;;;;;;;;;;;25.70;36.60;;;;;;4997071;28;20016;-79
2022/07/16 16:02:13;;;;;;;;;;;25.70;36.60;;;;;;4997882;28;20024;-79
2022/07/16 16:04:40;;;;;;;;;;;25.70;36.60;;;;;;4996936;28;19965;-80
2022/07/16 16:07:06;;;;;;;;;;;25.70;36.60;;;;;;4996834;28;20325;-79
2022/07/16 16:09:33;;;;;;;;;;;25.70;36.60;;;;;;4998421;28;19965;-79
2022/07/16 16:12:00;;;;;;;;;;;25.60;36.50;;;;;;4995947;28;20358;-79
2022/07/16 16:14:26;;;;;;;;;;;25.70;36.60;;;;;;4997579;28;20378;-79
2022/07/16 16:16:53;;;;;;;;;;;25.70;36.60;;;;;;4997176;28;19996;-79
2022/07/16 16:19:21;;;;;;;;;;;25.70;36.60;;;;;;4998644;28;20016;-80
2022/07/16 16:21:48;;;;;;;;;;;25.60;36.60;;;;;;4997861;28;20024;-79
2022/07/16 16:24:14;;;;;;;;;;;25.70;36.60;;;;;;4996149;28;20024;-79
2022/07/16 16:26:41;;;;;;;;;;;25.60;36.50;;;;;;4997286;28;19980;-79
2022/07/16 16:29:08;;;;;;;;;;;25.70;36.60;;;;;;4997251;28;19932;-80
2022/07/16 16:31:35;;;;;;;;;;;25.70;36.60;;;;;;4998412;28;19929;-79
2022/07/16 16:34:02;;;;;;;;;;;25.60;36.60;;;;;;4998750;28;20377;-79
2022/07/16 16:36:31;;;;;;;;;;;25.70;36.60;;;;;;5000760;28;19949;-80
2022/07/16 16:38:58;;;;;;;;;;;25.60;36.50;;;;;;4997877;28;20016;-80
2022/07/16 16:41:24;;;;;;;;;;;25.60;36.50;;;;;;4996837;28;20040;-79
2022/07/16 16:43:51;;;;;;;;;;;25.60;36.50;;;;;;4997533;28;20361;-80
2022/07/16 16:46:18;;;;;;;;;;;25.60;36.60;;;;;;4997868;28;20020;-81
2022/07/16 16:48:44;;;;;;;;;;;25.60;36.60;;;;;;4998171;28;20424;-81
2022/07/16 16:51:11;;;;;;;;;;;25.60;36.50;;;;;;4997350;28;20305;-82
2022/07/16 16:53:39;;;;;;;;;;;25.70;36.60;;;;;;4996924;28;20373;-82
2022/07/16 16:56:06;;;;;;;;;;;25.70;36.60;;;;;;4997755;28;20025;-81
2022/07/16 16:58:33;;;;;;;;;;;25.60;37.30;;;;;;4997274;28;20371;-81
2022/07/16 17:00:59;;;;;;;;;;;25.60;36.70;;;;;;4998047;28;19926;-81
2022/07/16 17:03:26;;;;;;;;;;;25.60;36.80;;;;;;4997823;28;20407;-81
2022/07/16 17:05:53;;;;;;;;;;;25.70;36.80;;;;;;4998776;28;19925;-81
2022/07/16 17:08:20;;;;;;;;;;;25.60;36.80;;;;;;4998720;28;20025;-81
2022/07/16 17:10:48;;;;;;;;;;;25.60;36.80;;;;;;4998494;28;19926;-81
2022/07/16 17:13:15;;;;;;;;;;;25.60;36.90;;;;;;4998493;28;19932;-81
2022/07/16 17:15:42;;;;;;;;;;;25.60;36.90;;;;;;4997865;28;19930;-81
2022/07/16 17:18:08;;;;;;;;;;;25.60;37.00;;;;;;4997114;28;20405;-81
2022/07/16 17:20:35;;;;;;;;;;;25.60;37.00;;;;;;4997903;28;19932;-80
2022/07/16 17:23:02;;;;;;;;;;;25.60;37.00;;;;;;4999320;28;20329;-80
2022/07/16 17:25:29;;;;;;;;;;;25.60;37.00;;;;;;4996825;28;20274;-80
2022/07/16 17:27:57;;;;;;;;;;;25.60;37.00;;;;;;4996672;28;19926;-80
2022/07/16 17:30:24;;;;;;;;;;;25.60;37.10;;;;;;4996779;28;19926;-80
2022/07/16 17:32:50;;;;;;;;;;;25.60;37.10;;;;;;4995970;28;20393;-80
2022/07/16 17:35:17;;;;;;;;;;;25.60;37.10;;;;;;4996594;28;19926;-83
2022/07/16 17:37:44;;;;;;;;;;;25.60;37.20;;;;;;4996265;28;19961;-81
2022/07/16 17:40:11;;;;;;;;;;;25.60;37.20;;;;;;4996572;28;20066;-80
2022/07/16 17:42:37;;;;;;;;;;;25.60;37.20;;;;;;4996272;28;20006;-82
2022/07/16 17:45:06;;;;;;;;;;;25.60;37.30;;;;;;4997128;28;19925;-79
2022/07/16 17:47:33;;;;;;;;;;;25.60;37.30;;;;;;5000847;28;20024;-79
2022/07/16 17:49:58;;;;;;;;;;;25.60;37.30;;;;;;4998254;28;20024;-79
2022/07/16 17:52:29;;;;;;;;;;;25.60;37.30;;;;;;5000544;28;20373;-79
2022/07/16 17:54:56;;;;;;;;;;;25.60;37.30;;;;;;4999800;28;19976;-79
2022/07/16 17:57:23;;;;;;;;;;;25.60;37.40;;;;;;4998404;28;20036;-80
2022/07/16 17:59:50;;;;;;;;;;;25.60;37.50;;;;;;5001004;28;20017;-80
2022/07/16 18:02:18;;;;;;;;;;;25.60;37.50;;;;;;5000565;28;19926;-80
2022/07/16 18:04:45;;;;;;;;;;;25.60;37.50;;;;;;4999477;28;19968;-80
2022/07/16 18:07:12;;;;;;;;;;;25.60;37.50;;;;;;5005821;28;20338;-80
2022/07/16 18:09:39;;;;;;;;;;;25.60;37.50;;;;;;5007992;28;20289;-80
2022/07/16 18:12:07;;;;;;;;;;;25.60;37.60;;;;;;5006374;28;20408;-80
2022/07/16 18:14:34;;;;;;;;;;;25.60;37.60;;;;;;5000365;28;20036;-79
2022/07/16 18:17:01;;;;;;;;;;;25.60;37.60;;;;;;5000196;28;20028;-79
2022/07/16 18:19:29;;;;;;;;;;;25.60;37.70;;;;;;4998798;28;19926;-79
2022/07/16 18:21:56;;;;;;;;;;;25.60;37.70;;;;;;5006727;28;19949;-79
2022/07/16 18:24:22;;;;;;;;;;;25.60;37.70;;;;;;5009865;28;19949;-79
2022/07/16 18:26:49;;;;;;;;;;;25.60;37.70;;;;;;5007435;28;19972;-80
2022/07/16 18:29:16;;;;;;;;;;;25.60;37.80;;;;;;4998993;28;19926;-80
2022/07/16 18:31:43;;;;;;;;;;;25.60;37.80;;;;;;5000215;28;19930;-79
2022/07/16 18:34:09;;;;;;;;;;;25.60;37.80;;;;;;4999733;28;19984;-79
2022/07/16 18:36:37;;;;;;;;;;;25.60;37.80;;;;;;5000564;28;19984;-78
2022/07/16 18:39:05;;;;;;;;;;;25.60;37.90;;;;;;4998061;28;19949;-79
2022/07/16 18:41:32;;;;;;;;;;;25.60;37.90;;;;;;4999835;28;19976;-79
2022/07/16 18:43:59;;;;;;;;;;;25.60;37.90;;;;;;5000338;28;19972;-79
2022/07/16 18:46:26;;;;;;;;;;;25.60;37.90;;;;;;4999296;28;19948;-79
2022/07/16 18:48:55;;;;;;;;;;;25.60;37.90;;;;;;4999499;28;19930;-79
2022/07/16 18:51:22;;;;;;;;;;;25.60;38.00;;;;;;4998875;28;19933;-79
2022/07/16 18:53:50;;;;;;;;;;;25.60;38.00;;;;;;4998622;28;20369;-79
2022/07/16 18:56:16;;;;;;;;;;;25.60;38.00;;;;;;4999671;28;19973;-79
2022/07/16 18:58:43;;;;;;;;;;;25.60;38.00;;;;;;4998952;28;20279;-80
2022/07/16 19:01:10;;;;;;;;;;;25.60;38.10;;;;;;4997555;28;20293;-80
2022/07/16 19:03:36;;;;;;;;;;;25.60;38.10;;;;;;4998129;28;19932;-79
2022/07/16 19:06:05;;;;;;;;;;;25.60;38.10;;;;;;4997378;28;19936;-79
2022/07/16 19:08:31;;;;;;;;;;;25.60;38.10;;;;;;5000724;28;19926;-79
2022/07/16 19:10:59;;;;;;;;;;;25.60;38.10;;;;;;5001777;28;19972;-79
2022/07/16 19:13:26;;;;;;;;;;;25.60;38.20;;;;;;4999097;28;19926;-79
2022/07/16 19:15:55;;;;;;;;;;;25.60;38.20;;;;;;4996704;28;19936;-78
2022/07/16 19:18:22;;;;;;;;;;;25.60;38.20;;;;;;4997883;28;19926;-78
2022/07/16 19:20:49;;;;;;;;;;;25.60;38.30;;;;;;4998002;28;19926;-79
2022/07/16 19:23:16;;;;;;;;;;;25.60;38.30;;;;;;4998040;28;19926;-79
2022/07/16 19:25:43;;;;;;;;;;;25.60;38.30;;;;;;4997903;28;20017;-79
2022/07/16 19:28:11;;;;;;;;;;;25.60;38.30;;;;;;4999395;28;19932;-80